Boonsboro, MD

7:45 PM EDT on September 20, 2014 (GMT -0400)
Boonsboro Weather Station | Change Station
CLOSE
Current Station
Personal Weather Station
Location: Boonsboro, MD
Elevation: 520 ft
Nearby Weather Stations

Elev 520 ft 39.51 °N, 77.65 °W | Updated 13 minutes ago

Clear
Clear
67.1 °F
Feels Like 67.1 °F
N
3.8
Wind Variable Wind from ESE

Today
High -- | Low -- °F
--% Chance of Precip.
Yesterday
High -- | Low -- °F
Precip. -- in
6:56 AM 7:11 PM
Waning Crescent, 10% visible
Pressure 30.05 in
Visibility 10.0 miles
Clouds Clear
Dew Point 52 °F
Humidity 59%
Rainfall 0.00 in
Snow Depth Not available.
UV 0 out of 12
Pollen 4.10 out of 12
Air Quality Not available.
Flu Activity Not available.
METAR KHGR 202253Z 16011KT 10SM CLR 24/13 A3004 RMK AO2 SLP176 T02390133

More Conditions Fewer Conditions

Pressure 30.05 in
Visibility 10.0 miles
Clouds Clear
Dew Point 52 °F
Humidity 59%
Rainfall 0.00 in
Snow Depth Not available.
UV 0 out of 12
Pollen 4.10 out of 12
Air Quality Not available.
Flu Activity Not available.
METAR KHGR 202253Z 16011KT 10SM CLR 24/13 A3004 RMK AO2 SLP176 T02390133

More Conditions Fewer Conditions

10-Day Weather Forecast

Almanac

Astronomy

Sep. 20, 2014 Rise Set
Actual Time 6:56 AM EDT 7:11 PM EDT
Civil Twilight 6:29 AM EDT 7:37 PM EDT
Nautical Twilight 5:58 AM EDT 8:09 PM EDT
Astronomical Twilight 5:25 AM EDT 8:41 PM EDT
Moon 3:34 AM EDT 5:12 PM EDT
Length of Visible Light 13h 08m
Length of Day
12h 14m
Tomorrow will be 2m 33s shorter.
Waning Crescent, 10% of the Moon is Illuminated
Today
Waning Crescent
Sep 24
New
Oct 1
First Quarter
Oct 8
Full
Oct 15
Last Quarter

Today's Extremes

State Highs State Lows

Community

WunderPhotos

Upload Photos

1,754,978 photos uploaded!

WunderBlogs® & News

Nearby

Snow Depth

Station Depth Elevation
No new snow has been reported.

Earthquake Activity

City Distance Mag. Time & Date
No recent earthquake activity has been reported nearby.
Minimum magnitude displayed is 2.5.

Coastal Water Temperatures

Place Temperature
No Stations Reporting

Nearby Weather Stations